Aviation Digital Data Service (ADDS)

Output produced by METARs form (1351 UTC 27 February 2017)
found at http://www.aviationweather.gov/adds/metars/
 
KWWD 271256Z AUTO 00000KT 10SM CLR 04/02 A3046 RMK AO2 SLP316 T00440017 $